sensor_id;sensor_type;location;lat;lon;timestamp;pressure;altitude;pressure_sealevel;temperature;humidity
49102;BME280;34913;47.520;19.186;2022-10-28T00:01:07;101322.88;;;12.14;100.00
49102;BME280;34913;47.520;19.186;2022-10-28T00:03:37;101328.09;;;12.15;100.00
49102;BME280;34913;47.520;19.186;2022-10-28T00:06:09;101323.97;;;12.11;100.00
49102;BME280;34913;47.520;19.186;2022-10-28T00:08:35;101319.78;;;12.07;100.00
49102;BME280;34913;47.520;19.186;2022-10-28T00:11:22;101319.50;;;12.12;100.00
49102;BME280;34913;47.520;19.186;2022-10-28T00:13:48;101316.50;;;12.16;100.00
49102;BME280;34913;47.520;19.186;2022-10-28T00:16:27;101317.69;;;12.12;100.00
49102;BME280;34913;47.520;19.186;2022-10-28T00:18:54;101320.88;;;12.17;100.00
49102;BME280;34913;47.520;19.186;2022-10-28T00:21:23;101325.88;;;12.22;100.00
49102;BME280;34913;47.520;19.186;2022-10-28T00:23:49;101312.78;;;12.19;100.00
49102;BME280;34913;47.520;19.186;2022-10-28T00:26:36;101309.59;;;12.26;100.00
49102;BME280;34913;47.520;19.186;2022-10-28T00:29:07;101311.94;;;12.31;100.00
49102;BME280;34913;47.520;19.186;2022-10-28T00:31:34;101309.59;;;12.26;100.00
49102;BME280;34913;47.520;19.186;2022-10-28T00:34:01;101317.56;;;12.14;100.00
49102;BME280;34913;47.520;19.186;2022-10-28T00:36:29;101320.88;;;12.17;100.00
49102;BME280;34913;47.520;19.186;2022-10-28T00:38:57;101313.09;;;12.14;100.00
49102;BME280;34913;47.520;19.186;2022-10-28T00:41:24;101322.16;;;12.12;100.00
49102;BME280;34913;47.520;19.186;2022-10-28T00:43:51;101319.25;;;12.02;100.00
49102;BME280;34913;47.520;19.186;2022-10-28T00:49:17;101312.94;;;11.90;100.00
49102;BME280;34913;47.520;19.186;2022-10-28T00:51:45;101313.81;;;11.77;100.00
49102;BME280;34913;47.520;19.186;2022-10-28T00:54:13;101311.94;;;11.79;100.00
49102;BME280;34913;47.520;19.186;2022-10-28T00:56:43;101317.31;;;11.91;100.00
49102;BME280;34913;47.520;19.186;2022-10-28T00:59:19;101313.50;;;11.95;100.00
49102;BME280;34913;47.520;19.186;2022-10-28T01:01:47;101307.00;;;11.99;100.00
49102;BME280;34913;47.520;19.186;2022-10-28T01:04:12;101305.75;;;12.05;100.00
49102;BME280;34913;47.520;19.186;2022-10-28T01:06:38;101313.50;;;12.08;100.00
49102;BME280;34913;47.520;19.186;2022-10-28T01:09:05;101308.63;;;12.02;100.00
49102;BME280;34913;47.520;19.186;2022-10-28T01:11:52;101309.78;;;11.98;100.00
49102;BME280;34913;47.520;19.186;2022-10-28T01:22:57;101300.84;;;12.12;100.00
49102;BME280;34913;47.520;19.186;2022-10-28T01:33:57;101296.50;;;12.11;100.00
49102;BME280;34913;47.520;19.186;2022-10-28T01:36:35;101290.97;;;12.01;100.00
49102;BME280;34913;47.520;19.186;2022-10-28T01:39:25;101289.97;;;11.89;100.00
49102;BME280;34913;47.520;19.186;2022-10-28T01:44:44;101294.03;;;11.95;100.00
49102;BME280;34913;47.520;19.186;2022-10-28T01:48:20;101290.50;;;11.94;100.00
49102;BME280;34913;47.520;19.186;2022-10-28T01:50:55;101288.47;;;11.98;100.00
49102;BME280;34913;47.520;19.186;2022-10-28T01:53:27;101285.63;;;12.01;100.00
49102;BME280;34913;47.520;19.186;2022-10-28T01:55:56;101285.94;;;11.96;100.00
49102;BME280;34913;47.520;19.186;2022-10-28T01:58:26;101289.97;;;11.89;100.00
49102;BME280;34913;47.520;19.186;2022-10-28T02:00:54;101290.19;;;11.86;100.00
49102;BME280;34913;47.520;19.186;2022-10-28T02:03:21;101289.69;;;11.80;100.00
49102;BME280;34913;47.520;19.186;2022-10-28T02:05:48;101289.88;;;11.77;100.00
49102;BME280;34913;47.520;19.186;2022-10-28T02:10:57;101282.50;;;11.82;100.00
49102;BME280;34913;47.520;19.186;2022-10-28T02:16:50;101290.19;;;11.86;100.00
49102;BME280;34913;47.520;19.186;2022-10-28T02:27:46;101286.34;;;11.90;100.00
49102;BME280;34913;47.520;19.186;2022-10-28T02:30:18;101293.97;;;11.82;100.00
49102;BME280;34913;47.520;19.186;2022-10-28T02:32:47;101297.88;;;11.77;100.00
49102;BME280;34913;47.520;19.186;2022-10-28T02:35:23;101290.00;;;11.75;100.00
49102;BME280;34913;47.520;19.186;2022-10-28T02:37:52;101296.09;;;11.77;100.00
49102;BME280;34913;47.520;19.186;2022-10-28T02:40:22;101283.94;;;11.73;100.00
49102;BME280;34913;47.520;19.186;2022-10-28T02:42:51;101290.00;;;11.75;100.00
49102;BME280;34913;47.520;19.186;2022-10-28T02:45:24;101283.81;;;11.62;100.00
49102;BME280;34913;47.520;19.186;2022-10-28T02:47:56;101290.63;;;11.66;100.00
49102;BME280;34913;47.520;19.186;2022-10-28T02:50:29;101290.41;;;11.69;100.00
49102;BME280;34913;47.520;19.186;2022-10-28T02:52:58;101288.28;;;11.74;100.00
49102;BME280;34913;47.520;19.186;2022-10-28T02:55:29;101290.78;;;11.77;100.00
49102;BME280;34913;47.520;19.186;2022-10-28T02:57:56;101282.41;;;11.69;100.00
49102;BME280;34913;47.520;19.186;2022-10-28T03:00:22;101285.28;;;11.66;100.00
49102;BME280;34913;47.520;19.186;2022-10-28T03:02:49;101281.44;;;11.57;100.00
49102;BME280;34913;47.520;19.186;2022-10-28T03:05:15;101284.91;;;11.45;100.00
49102;BME280;34913;47.520;19.186;2022-10-28T03:07:41;101291.38;;;11.41;100.00
49102;BME280;34913;47.520;19.186;2022-10-28T03:10:07;101282.25;;;11.45;100.00
49102;BME280;34913;47.520;19.186;2022-10-28T03:12:32;101280.47;;;11.45;100.00
49102;BME280;34913;47.520;19.186;2022-10-28T03:14:58;101283.31;;;11.42;100.00
49102;BME280;34913;47.520;19.186;2022-10-28T03:17:23;101288.72;;;11.41;100.00
49102;BME280;34913;47.520;19.186;2022-10-28T03:19:49;101286.28;;;11.38;100.00
49102;BME280;34913;47.520;19.186;2022-10-28T03:22:14;101289.13;;;11.35;100.00
49102;BME280;34913;47.520;19.186;2022-10-28T03:24:39;101282.75;;;11.37;100.00
49102;BME280;34913;47.520;19.186;2022-10-28T03:27:05;101283.44;;;11.27;100.00
49102;BME280;34913;47.520;19.186;2022-10-28T03:29:30;101288.88;;;11.25;100.00
49102;BME280;34913;47.520;19.186;2022-10-28T03:31:56;101288.13;;;11.23;100.00
49102;BME280;34913;47.520;19.186;2022-10-28T03:34:21;101278.94;;;11.14;100.00
49102;BME280;34913;47.520;19.186;2022-10-28T03:36:46;101287.94;;;11.12;100.00
49102;BME280;34913;47.520;19.186;2022-10-28T03:39:12;101285.41;;;11.10;100.00
49102;BME280;34913;47.520;19.186;2022-10-28T03:41:37;101283.47;;;11.12;100.00
49102;BME280;34913;47.520;19.186;2022-10-28T03:44:03;101282.53;;;11.13;100.00
49102;BME280;34913;47.520;19.186;2022-10-28T03:46:28;101283.94;;;11.19;100.00
49102;BME280;34913;47.520;19.186;2022-10-28T03:48:53;101281.00;;;11.24;100.00
49102;BME280;34913;47.520;19.186;2022-10-28T03:51:19;101272.25;;;11.22;100.00
49102;BME280;34913;47.520;19.186;2022-10-28T03:53:44;101280.69;;;11.28;100.00
49102;BME280;34913;47.520;19.186;2022-10-28T03:56:10;101278.03;;;11.28;100.00
49102;BME280;34913;47.520;19.186;2022-10-28T03:58:36;101277.06;;;11.29;100.00
49102;BME280;34913;47.520;19.186;2022-10-28T04:01:02;101280.63;;;11.30;100.00
49102;BME280;34913;47.520;19.186;2022-10-28T04:03:28;101281.25;;;11.33;100.00
49102;BME280;34913;47.520;19.186;2022-10-28T04:05:53;101280.66;;;11.42;100.00
49102;BME280;34913;47.520;19.186;2022-10-28T04:08:19;101282.25;;;11.45;100.00
49102;BME280;34913;47.520;19.186;2022-10-28T04:10:45;101283.19;;;11.44;100.00
49102;BME280;34913;47.520;19.186;2022-10-28T04:13:11;101283.19;;;11.44;100.00
49102;BME280;34913;47.520;19.186;2022-10-28T04:15:37;101276.69;;;11.35;100.00
49102;BME280;34913;47.520;19.186;2022-10-28T04:18:03;101284.88;;;11.32;100.00
49102;BME280;34913;47.520;19.186;2022-10-28T04:20:29;101267.97;;;11.33;100.00
49102;BME280;34913;47.520;19.186;2022-10-28T04:22:56;101273.63;;;11.41;100.00
49102;BME280;34913;47.520;19.186;2022-10-28T04:25:22;101279.34;;;11.35;100.00
49102;BME280;34913;47.520;19.186;2022-10-28T04:27:48;101270.72;;;11.32;100.00
49102;BME280;34913;47.520;19.186;2022-10-28T04:30:13;101266.88;;;11.23;100.00
49102;BME280;34913;47.520;19.186;2022-10-28T04:32:40;101265.06;;;11.24;100.00
49102;BME280;34913;47.520;19.186;2022-10-28T04:35:07;101258.31;;;11.18;100.00
49102;BME280;34913;47.520;19.186;2022-10-28T04:37:32;101255.88;;;11.15;100.00
49102;BME280;34913;47.520;19.186;2022-10-28T04:39:58;101256.41;;;11.20;100.00
49102;BME280;34913;47.520;19.186;2022-10-28T04:42:23;101251.59;;;11.12;100.00
49102;BME280;34913;47.520;19.186;2022-10-28T04:44:49;101254.06;;;11.15;100.00
49102;BME280;34913;47.520;19.186;2022-10-28T04:47:15;101257.47;;;11.17;100.00
49102;BME280;34913;47.520;19.186;2022-10-28T04:49:41;101253.75;;;11.20;100.00
49102;BME280;34913;47.520;19.186;2022-10-28T04:52:06;101250.81;;;11.25;100.00
49102;BME280;34913;47.520;19.186;2022-10-28T04:54:31;101251.09;;;11.20;100.00
49102;BME280;34913;47.520;19.186;2022-10-28T04:56:57;101253.31;;;11.13;100.00
49102;BME280;34913;47.520;19.186;2022-10-28T04:59:22;101249.63;;;11.16;100.00
49102;BME280;34913;47.520;19.186;2022-10-28T05:01:47;101246.22;;;11.14;100.00
49102;BME280;34913;47.520;19.186;2022-10-28T05:04:13;101237.00;;;11.05;100.00
49102;BME280;34913;47.520;19.186;2022-10-28T05:06:38;101236.72;;;11.10;100.00
49102;BME280;34913;47.520;19.186;2022-10-28T05:09:04;101239.47;;;11.08;100.00
49102;BME280;34913;47.520;19.186;2022-10-28T05:11:29;101243.94;;;11.08;100.00
49102;BME280;34913;47.520;19.186;2022-10-28T05:13:55;101250.00;;;11.10;100.00
49102;BME280;34913;47.520;19.186;2022-10-28T05:16:20;101246.78;;;11.05;100.00
49102;BME280;34913;47.520;19.186;2022-10-28T05:18:45;101248.31;;;11.09;100.00
49102;BME280;34913;47.520;19.186;2022-10-28T05:21:11;101250.84;;;11.10;100.00
49102;BME280;34913;47.520;19.186;2022-10-28T05:23:36;101252.19;;;11.03;100.00
49102;BME280;34913;47.520;19.186;2022-10-28T05:26:02;101253.63;;;11.09;100.00
49102;BME280;34913;47.520;19.186;2022-10-28T05:28:27;101253.72;;;11.07;100.00
49102;BME280;34913;47.520;19.186;2022-10-28T05:30:53;101248.31;;;11.09;100.00
49102;BME280;34913;47.520;19.186;2022-10-28T05:33:18;101244.53;;;10.99;100.00
49102;BME280;34913;47.520;19.186;2022-10-28T05:35:43;101250.13;;;10.94;100.00
49102;BME280;34913;47.520;19.186;2022-10-28T05:38:09;101251.84;;;10.95;100.00
49102;BME280;34913;47.520;19.186;2022-10-28T05:40:34;101260.66;;;10.96;100.00
49102;BME280;34913;47.520;19.186;2022-10-28T05:43:00;101260.19;;;10.89;100.00
49102;BME280;34913;47.520;19.186;2022-10-28T05:45:26;101270.66;;;10.92;100.00
49102;BME280;34913;47.520;19.186;2022-10-28T05:47:51;101266.44;;;11.02;100.00
49102;BME280;34913;47.520;19.186;2022-10-28T05:50:18;101269.56;;;11.09;100.00
49102;BME280;34913;47.520;19.186;2022-10-28T05:52:49;101274.16;;;11.19;100.00
49102;BME280;34913;47.520;19.186;2022-10-28T05:55:15;101277.50;;;11.23;100.00
49102;BME280;34913;47.520;19.186;2022-10-28T05:57:44;101282.59;;;11.26;100.00
49102;BME280;34913;47.520;19.186;2022-10-28T06:00:10;101283.44;;;11.27;100.00
49102;BME280;34913;47.520;19.186;2022-10-28T06:02:35;101282.31;;;11.31;100.00
49102;BME280;34913;47.520;19.186;2022-10-28T06:05:01;101288.16;;;11.36;100.00
49102;BME280;34913;47.520;19.186;2022-10-28T06:07:28;101292.22;;;11.41;100.00
49102;BME280;34913;47.520;19.186;2022-10-28T06:09:53;101297.56;;;11.41;100.00
49102;BME280;34913;47.520;19.186;2022-10-28T06:12:18;101291.31;;;11.28;100.00
49102;BME280;34913;47.520;19.186;2022-10-28T06:14:44;101305.81;;;11.37;100.00
49102;BME280;34913;47.520;19.186;2022-10-28T06:17:09;101303.72;;;11.42;100.00
49102;BME280;34913;47.520;19.186;2022-10-28T06:19:35;101294.16;;;11.39;100.00
49102;BME280;34913;47.520;19.186;2022-10-28T06:22:00;101291.28;;;11.42;100.00
49102;BME280;34913;47.520;19.186;2022-10-28T06:24:25;101289.47;;;11.43;100.00
49102;BME280;34913;47.520;19.186;2022-10-28T06:26:51;101291.84;;;11.48;100.00
49102;BME280;34913;47.520;19.186;2022-10-28T06:29:16;101295.34;;;11.48;100.00
49102;BME280;34913;47.520;19.186;2022-10-28T06:31:42;101296.69;;;11.41;100.00
49102;BME280;34913;47.520;19.186;2022-10-28T06:34:09;101304.31;;;11.33;100.00
49102;BME280;34913;47.520;19.186;2022-10-28T06:36:35;101295.28;;;11.35;100.00
49102;BME280;34913;47.520;19.186;2022-10-28T06:39:00;101299.84;;;11.33;100.00
49102;BME280;34913;47.520;19.186;2022-10-28T06:41:26;101299.28;;;11.28;100.00
49102;BME280;34913;47.520;19.186;2022-10-28T06:43:51;101298.84;;;11.22;100.00
49102;BME280;34913;47.520;19.186;2022-10-28T06:46:16;101299.59;;;11.24;100.00
49102;BME280;34913;47.520;19.186;2022-10-28T06:48:42;101295.59;;;11.31;100.00
49102;BME280;34913;47.520;19.186;2022-10-28T06:51:07;101297.75;;;11.38;100.00
49102;BME280;34913;47.520;19.186;2022-10-28T06:53:33;101299.56;;;11.38;100.00
49102;BME280;34913;47.520;19.186;2022-10-28T06:55:58;101296.13;;;11.36;100.00
49102;BME280;34913;47.520;19.186;2022-10-28T06:58:24;101303.94;;;11.39;100.00
49102;BME280;34913;47.520;19.186;2022-10-28T07:00:50;101303.63;;;11.43;100.00
49102;BME280;34913;47.520;19.186;2022-10-28T07:03:16;101309.28;;;11.52;100.00
49102;BME280;34913;47.520;19.186;2022-10-28T07:05:44;101318.56;;;11.59;100.00
49102;BME280;34913;47.520;19.186;2022-10-28T07:08:10;101312.91;;;11.51;100.00
49102;BME280;34913;47.520;19.186;2022-10-28T07:10:35;101318.09;;;11.52;100.00
49102;BME280;34913;47.520;19.186;2022-10-28T07:13:01;101314.47;;;11.40;100.00
49102;BME280;34913;47.520;19.186;2022-10-28T07:15:26;101307.59;;;11.24;100.00
49102;BME280;34913;47.520;19.186;2022-10-28T07:17:53;101319.06;;;11.24;100.00
49102;BME280;34913;47.520;19.186;2022-10-28T07:20:19;101316.75;;;11.32;100.00
49102;BME280;34913;47.520;19.186;2022-10-28T07:22:45;101313.16;;;11.33;100.00
49102;BME280;34913;47.520;19.186;2022-10-28T07:25:10;101304.72;;;11.27;100.00
49102;BME280;34913;47.520;19.186;2022-10-28T07:27:36;101310.22;;;11.38;100.00
49102;BME280;34913;47.520;19.186;2022-10-28T07:30:01;101304.69;;;11.41;100.00
49102;BME280;34913;47.520;19.186;2022-10-28T07:32:31;101306.22;;;11.58;100.00
49102;BME280;34913;47.520;19.186;2022-10-28T07:34:56;101321.28;;;11.71;100.00
49102;BME280;34913;47.520;19.186;2022-10-28T07:37:22;101310.97;;;11.80;100.00
49102;BME280;34913;47.520;19.186;2022-10-28T07:39:47;101306.63;;;11.79;100.00
49102;BME280;34913;47.520;19.186;2022-10-28T07:42:12;101319.63;;;11.83;100.00
49102;BME280;34913;47.520;19.186;2022-10-28T07:44:38;101309.09;;;11.82;100.00
49102;BME280;34913;47.520;19.186;2022-10-28T07:47:04;101315.94;;;11.86;100.00
49102;BME280;34913;47.520;19.186;2022-10-28T07:49:29;101317.19;;;11.80;100.00
49102;BME280;34913;47.520;19.186;2022-10-28T07:51:54;101324.22;;;11.67;100.00
49102;BME280;34913;47.520;19.186;2022-10-28T07:54:20;101329.94;;;11.61;100.00
49102;BME280;34913;47.520;19.186;2022-10-28T07:56:45;101327.63;;;11.69;100.00
49102;BME280;34913;47.520;19.186;2022-10-28T07:59:11;101322.69;;;11.77;100.00
49102;BME280;34913;47.520;19.186;2022-10-28T08:01:37;101325.91;;;11.82;100.00
49102;BME280;34913;47.520;19.186;2022-10-28T08:04:02;101319.34;;;11.88;100.00
49102;BME280;34913;47.520;19.186;2022-10-28T08:06:27;101318.59;;;11.98;100.00
49102;BME280;34913;47.520;19.186;2022-10-28T08:08:54;101318.81;;;11.95;100.00
49102;BME280;34913;47.520;19.186;2022-10-28T08:11:21;101312.09;;;11.90;100.00
49102;BME280;34913;47.520;19.186;2022-10-28T08:13:48;101307.28;;;11.82;100.00
49102;BME280;34913;47.520;19.186;2022-10-28T08:16:14;101315.59;;;11.90;100.00
49102;BME280;34913;47.520;19.186;2022-10-28T08:18:40;101301.44;;;11.90;100.00
49102;BME280;34913;47.520;19.186;2022-10-28T08:21:07;101305.00;;;12.03;100.00
49102;BME280;34913;47.520;19.186;2022-10-28T08:23:34;101295.84;;;12.07;100.00
49102;BME280;34913;47.520;19.186;2022-10-28T08:26:00;101302.16;;;12.19;100.00
49102;BME280;34913;47.520;19.186;2022-10-28T08:28:25;101293.50;;;12.15;100.00
49102;BME280;34913;47.520;19.186;2022-10-28T08:30:51;101298.53;;;12.20;100.00
49102;BME280;34913;47.520;19.186;2022-10-28T08:33:17;101302.03;;;12.20;100.00
49102;BME280;34913;47.520;19.186;2022-10-28T08:35:42;101299.47;;;12.19;100.00
49102;BME280;34913;47.520;19.186;2022-10-28T08:38:13;101307.34;;;12.20;100.00
49102;BME280;34913;47.520;19.186;2022-10-28T08:44:04;101317.78;;;12.11;100.00
49102;BME280;34913;47.520;19.186;2022-10-28T08:49:10;101319.78;;;11.94;100.00
49102;BME280;34913;47.520;19.186;2022-10-28T08:54:48;101331.69;;;11.89;100.00
49102;BME280;34913;47.520;19.186;2022-10-28T08:57:19;101324.38;;;11.78;100.00
49102;BME280;34913;47.520;19.186;2022-10-28T08:59:46;101331.69;;;11.89;100.00
49102;BME280;34913;47.520;19.186;2022-10-28T09:02:19;101323.91;;;11.98;100.00
49102;BME280;34913;47.520;19.186;2022-10-28T09:04:49;101326.72;;;12.10;100.00
49102;BME280;34913;47.520;19.186;2022-10-28T09:07:20;101334.50;;;12.13;100.00
49102;BME280;34913;47.520;19.186;2022-10-28T09:09:47;101332.28;;;12.19;100.00
49102;BME280;34913;47.520;19.186;2022-10-28T09:17:54;101338.13;;;12.12;100.00
49102;BME280;34913;47.520;19.186;2022-10-28T09:20:29;101335.22;;;12.15;100.00
49102;BME280;34913;47.520;19.186;2022-10-28T09:22:59;101342.81;;;12.21;100.00
49102;BME280;34913;47.520;19.186;2022-10-28T09:25:40;101329.59;;;12.32;100.00
49102;BME280;34913;47.520;19.186;2022-10-28T09:31:19;101331.00;;;12.38;100.00
49102;BME280;34913;47.520;19.186;2022-10-28T09:34:04;101330.69;;;12.42;100.00
49102;BME280;34913;47.520;19.186;2022-10-28T09:36:45;101329.19;;;12.38;100.00
49102;BME280;34913;47.520;19.186;2022-10-28T09:39:16;101332.41;;;12.43;100.00
49102;BME280;34913;47.520;19.186;2022-10-28T09:41:45;101328.78;;;12.44;100.00
49102;BME280;34913;47.520;19.186;2022-10-28T09:44:39;101332.06;;;12.48;100.00
49102;BME280;34913;47.520;19.186;2022-10-28T09:47:12;101330.69;;;12.42;100.00
49102;BME280;34913;47.520;19.186;2022-10-28T09:49:39;101322.81;;;12.41;100.00
49102;BME280;34913;47.520;19.186;2022-10-28T09:54:41;101312.19;;;12.41;100.00
49102;BME280;34913;47.520;19.186;2022-10-28T09:57:08;101327.69;;;12.47;100.00
49102;BME280;34913;47.520;19.186;2022-10-28T09:59:33;101332.94;;;12.48;100.00
49102;BME280;34913;47.520;19.186;2022-10-28T10:01:59;101320.78;;;12.44;100.00
49102;BME280;34913;47.520;19.186;2022-10-28T10:04:27;101327.94;;;12.44;100.00
49102;BME280;34913;47.520;19.186;2022-10-28T10:06:56;101327.94;;;12.44;100.00
49102;BME280;34913;47.520;19.186;2022-10-28T10:09:26;101324.97;;;12.48;100.00
49102;BME280;34913;47.520;19.186;2022-10-28T10:11:55;101320.25;;;12.52;100.00
49102;BME280;34913;47.520;19.186;2022-10-28T10:14:30;101331.44;;;12.57;99.68
49102;BME280;34913;47.520;19.186;2022-10-28T10:17:19;101324.75;;;12.64;99.03
49102;BME280;34913;47.520;19.186;2022-10-28T10:22:39;101329.59;;;12.70;98.04
49102;BME280;34913;47.520;19.186;2022-10-28T10:28:01;101331.22;;;12.60;100.00
49102;BME280;34913;47.520;19.186;2022-10-28T10:30:39;101330.47;;;12.45;100.00
49102;BME280;34913;47.520;19.186;2022-10-28T10:33:30;101333.16;;;12.33;100.00
49102;BME280;34913;47.520;19.186;2022-10-28T10:36:00;101329.19;;;12.25;100.00
49102;BME280;34913;47.520;19.186;2022-10-28T10:38:27;101328.53;;;12.22;100.00
49102;BME280;34913;47.520;19.186;2022-10-28T10:40:53;101327.16;;;12.29;100.00
49102;BME280;34913;47.520;19.186;2022-10-28T10:46:05;101324.19;;;12.46;100.00
49102;BME280;34913;47.520;19.186;2022-10-28T10:48:36;101323.88;;;12.51;100.00
49102;BME280;34913;47.520;19.186;2022-10-28T10:51:07;101319.50;;;12.63;100.00
49102;BME280;34913;47.520;19.186;2022-10-28T10:53:34;101311.09;;;12.56;100.00
49102;BME280;34913;47.520;19.186;2022-10-28T10:56:03;101319.91;;;12.69;100.00
49102;BME280;34913;47.520;19.186;2022-10-28T10:58:49;101314.78;;;12.79;100.00
49102;BME280;34913;47.520;19.186;2022-10-28T11:01:23;101304.44;;;12.87;99.20
49102;BME280;34913;47.520;19.186;2022-10-28T11:04:00;101303.38;;;12.90;98.80
49102;BME280;34913;47.520;19.186;2022-10-28T11:06:28;101307.00;;;12.89;98.39
49102;BME280;34913;47.520;19.186;2022-10-28T11:08:59;101301.69;;;12.63;99.78
49102;BME280;34913;47.520;19.186;2022-10-28T11:11:39;101302.53;;;12.64;100.00
49102;BME280;34913;47.520;19.186;2022-10-28T11:14:06;101303.94;;;12.69;100.00
49102;BME280;34913;47.520;19.186;2022-10-28T11:16:51;101296.91;;;12.81;100.00
49102;BME280;34913;47.520;19.186;2022-10-28T11:19:27;101302.75;;;12.86;100.00
49102;BME280;34913;47.520;19.186;2022-10-28T11:25:21;101297.75;;;12.81;98.61
49102;BME280;34913;47.520;19.186;2022-10-28T11:31:15;101297.00;;;12.79;100.00
49102;BME280;34913;47.520;19.186;2022-10-28T11:44:51;101280.66;;;12.97;99.17
49102;BME280;34913;47.520;19.186;2022-10-28T11:52:47;101279.88;;;13.07;97.54
49102;BME280;34913;47.520;19.186;2022-10-28T11:55:34;101265.00;;;12.92;98.38
49102;BME280;34913;47.520;19.186;2022-10-28T12:01:38;101275.22;;;12.98;100.00
49102;BME280;34913;47.520;19.186;2022-10-28T12:07:00;101268.47;;;13.05;99.17
49102;BME280;34913;47.520;19.186;2022-10-28T12:09:50;101260.97;;;13.10;98.15
49102;BME280;34913;47.520;19.186;2022-10-28T12:15:33;101259.41;;;13.08;98.45
49102;BME280;34913;47.520;19.186;2022-10-28T12:18:16;101247.66;;;13.10;98.59
49102;BME280;34913;47.520;19.186;2022-10-28T12:23:52;101242.56;;;13.07;99.10
49102;BME280;34913;47.520;19.186;2022-10-28T12:26:20;101242.72;;;13.17;97.91
49102;BME280;34913;47.520;19.186;2022-10-28T12:28:51;101248.19;;;13.16;97.87
49102;BME280;34913;47.520;19.186;2022-10-28T12:33:51;101249.03;;;13.16;98.42
49102;BME280;34913;47.520;19.186;2022-10-28T12:36:36;101242.31;;;13.10;98.58
49102;BME280;34913;47.520;19.186;2022-10-28T12:44:36;101238.94;;;13.08;99.62
49102;BME280;34913;47.520;19.186;2022-10-28T12:52:07;101229.28;;;12.95;100.00
49102;BME280;34913;47.520;19.186;2022-10-28T12:54:48;101228.25;;;12.84;100.00
49102;BME280;34913;47.520;19.186;2022-10-28T12:57:18;101226.44;;;12.85;100.00
49102;BME280;34913;47.520;19.186;2022-10-28T12:59:51;101225.03;;;12.92;100.00
49102;BME280;34913;47.520;19.186;2022-10-28T13:02:24;101222.13;;;12.95;100.00
49102;BME280;34913;47.520;19.186;2022-10-28T13:04:53;101218.31;;;12.86;100.00
49102;BME280;34913;47.520;19.186;2022-10-28T13:07:59;101217.25;;;12.89;100.00
49102;BME280;34913;47.520;19.186;2022-10-28T13:10:40;101217.25;;;12.89;100.00
49102;BME280;34913;47.520;19.186;2022-10-28T13:13:17;101214.72;;;12.88;100.00
49102;BME280;34913;47.520;19.186;2022-10-28T13:21:45;101214.78;;;12.99;100.00
49102;BME280;34913;47.520;19.186;2022-10-28T13:26:50;101216.72;;;12.97;100.00
49102;BME280;34913;47.520;19.186;2022-10-28T13:29:28;101215.00;;;12.96;100.00
49102;BME280;34913;47.520;19.186;2022-10-28T13:31:55;101218.53;;;12.96;100.00
49102;BME280;34913;47.520;19.186;2022-10-28T13:34:37;101215.84;;;12.96;100.00
49102;BME280;34913;47.520;19.186;2022-10-28T13:37:05;101220.25;;;12.84;100.00
49102;BME280;34913;47.520;19.186;2022-10-28T13:39:43;101217.69;;;12.83;100.00
49102;BME280;34913;47.520;19.186;2022-10-28T13:44:56;101214.47;;;12.91;100.00
49102;BME280;34913;47.520;19.186;2022-10-28T13:47:27;101217.88;;;12.93;100.00
49102;BME280;34913;47.520;19.186;2022-10-28T13:55:25;101206.72;;;12.88;100.00
49102;BME280;34913;47.520;19.186;2022-10-28T13:58:01;101207.66;;;12.86;100.00
49102;BME280;34913;47.520;19.186;2022-10-28T14:02:55;101211.28;;;12.85;100.00
49102;BME280;34913;47.520;19.186;2022-10-28T14:08:01;101211.56;;;12.70;100.00
49102;BME280;34913;47.520;19.186;2022-10-28T14:10:29;101220.31;;;12.72;100.00
49102;BME280;34913;47.520;19.186;2022-10-28T14:12:58;101227.22;;;12.74;100.00
49102;BME280;34913;47.520;19.186;2022-10-28T14:15:27;101227.94;;;12.76;100.00
49102;BME280;34913;47.520;19.186;2022-10-28T14:20:30;101224.13;;;12.68;100.00
49102;BME280;34913;47.520;19.186;2022-10-28T14:22:56;101219.03;;;12.65;100.00
49102;BME280;34913;47.520;19.186;2022-10-28T14:33:33;101215.81;;;12.72;100.00
49102;BME280;34913;47.520;19.186;2022-10-28T14:49:46;101206.03;;;12.73;100.00
49102;BME280;34913;47.520;19.186;2022-10-28T14:52:14;101212.19;;;12.73;100.00
49102;BME280;34913;47.520;19.186;2022-10-28T14:54:47;101214.63;;;12.76;100.00
49102;BME280;34913;47.520;19.186;2022-10-28T14:57:15;101210.38;;;12.74;100.00
49102;BME280;34913;47.520;19.186;2022-10-28T14:59:46;101211.44;;;12.71;100.00
49102;BME280;34913;47.520;19.186;2022-10-28T15:02:15;101212.63;;;12.67;100.00
49102;BME280;34913;47.520;19.186;2022-10-28T15:04:43;101209.75;;;12.70;100.00
49102;BME280;34913;47.520;19.186;2022-10-28T15:07:14;101204.53;;;12.69;100.00
49102;BME280;34913;47.520;19.186;2022-10-28T15:09:42;101204.41;;;12.70;100.00
49102;BME280;34913;47.520;19.186;2022-10-28T15:12:10;101201.00;;;12.68;100.00
49102;BME280;34913;47.520;19.186;2022-10-28T15:14:44;101200.78;;;12.71;100.00
49102;BME280;34913;47.520;19.186;2022-10-28T15:17:14;101197.91;;;12.74;100.00
49102;BME280;34913;47.520;19.186;2022-10-28T15:19:42;101194.94;;;12.66;100.00
49102;BME280;34913;47.520;19.186;2022-10-28T15:22:34;101191.03;;;12.59;100.00